Time,TemperatureF,DewpointF,PressureIn,WindDirection,WindDirectionDegrees,WindSpeedMPH,WindSpeedGustMPH,Humidity,HourlyPrecipIn,Conditions,Clouds,dailyrainin,SoftwareType,DateUTC
2013-10-23 01:22:00,34.0,16.0,30.46,SE,141,12.0,20.0,47,0.00,,,0.00,,2013-10-23 08:22:00,
2013-10-23 10:22:00,43.0,7.0,30.49,SSW,211,2.0,6.0,22,0.00,,,0.00,,2013-10-23 17:22:00,
2013-10-23 10:52:00,44.0,13.0,30.49,SW,229,4.0,8.0,28,0.00,,,0.00,,2013-10-23 17:52:00,
2013-10-23 11:22:00,44.0,12.0,30.48,South,183,5.0,10.0,27,0.00,,,0.00,,2013-10-23 18:22:00,
2013-10-23 11:41:00,44.0,15.0,30.47,SSW,193,3.0,12.0,30,0.00,,,0.00,,2013-10-23 18:41:00,
2013-10-23 11:52:00,44.0,15.0,30.47,South,179,7.0,12.0,31,0.00,,,0.00,,2013-10-23 18:52:00,
2013-10-23 12:11:00,43.0,14.0,30.47,South,173,7.0,13.0,30,0.00,,,0.00,,2013-10-23 19:11:00,
2013-10-23 12:21:00,43.0,17.0,30.46,SSE,166,4.0,15.0,34,0.00,,,0.00,,2013-10-23 19:21:00,
2013-10-23 12:53:00,45.0,17.0,30.45,SSW,194,5.0,17.0,32,0.00,,,0.00,,2013-10-23 19:53:00,
2013-10-23 13:22:00,44.0,13.0,30.45,South,185,6.0,15.0,28,0.00,,,0.00,,2013-10-23 20:22:00,
2013-10-23 13:52:00,44.0,12.0,30.45,South,186,6.0,14.0,27,0.00,,,0.00,,2013-10-23 20:52:00,
2013-10-23 14:21:00,45.0,15.0,30.45,South,187,6.0,13.0,30,0.00,,,0.00,,2013-10-23 21:21:00,
2013-10-23 14:54:00,45.0,20.0,30.44,WSW,249,4.0,15.0,36,0.00,,,0.00,,2013-10-23 21:54:00,
2013-10-23 15:23:00,45.0,20.0,30.45,South,185,5.0,18.0,36,0.00,,,0.00,,2013-10-23 22:23:00,
2013-10-23 15:54:00,45.0,19.0,30.44,South,171,10.0,17.0,35,0.00,,,0.00,,2013-10-23 22:54:00,
2013-10-23 16:22:00,45.0,18.0,30.44,SSW,193,6.0,17.0,34,0.00,,,0.00,,2013-10-23 23:22:00,
2013-10-23 16:52:00,43.0,19.0,30.43,South,181,7.0,14.0,37,0.00,,,0.00,,2013-10-23 23:52:00,
2013-10-23 17:11:00,42.0,18.0,30.43,South,171,5.0,15.0,38,0.00,,,0.00,,2013-10-24 00:11:00,
2013-10-23 17:21:00,40.0,18.0,30.44,SSE,155,5.0,11.0,40,0.00,,,0.00,,2013-10-24 00:21:00,
2013-10-23 17:52:00,39.0,18.0,30.44,SSE,148,6.0,10.0,43,0.00,,,0.00,,2013-10-24 00:52:00,
2013-10-23 18:21:00,38.0,18.0,30.45,SE,137,5.0,11.0,44,0.00,,,0.00,,2013-10-24 01:21:00,
2013-10-23 18:52:00,37.0,18.0,30.44,SSE,159,5.0,10.0,45,0.00,,,0.00,,2013-10-24 01:52:00,
2013-10-23 19:12:00,37.0,18.0,30.44,SSE,152,6.0,11.0,46,0.00,,,0.00,,2013-10-24 02:12:00,
2013-10-23 19:21:00,37.0,18.0,30.44,SE,144,7.0,12.0,46,0.00,,,0.00,,2013-10-24 02:21:00,
2013-10-23 20:22:00,37.0,17.0,30.45,SSE,149,7.0,12.0,43,0.00,,,0.00,,2013-10-24 03:22:00,
2013-10-23 20:55:00,37.0,16.0,30.45,SSE,149,8.0,14.0,42,0.00,,,0.00,,2013-10-24 03:55:00,
2013-10-23 21:14:00,37.0,16.0,30.45,SSE,148,7.0,13.0,42,0.00,,,0.00,,2013-10-24 04:14:00,
2013-10-23 21:24:00,37.0,16.0,30.45,SE,145,7.0,13.0,41,0.00,,,0.00,,2013-10-24 04:24:00,
2013-10-23 21:54:00,37.0,16.0,30.46,SSE,149,6.0,12.0,41,0.00,,,0.00,,2013-10-24 04:54:00,
2013-10-23 22:21:00,37.0,16.0,30.45,SE,141,8.0,14.0,41,0.00,,,0.00,,2013-10-24 05:21:00,
2013-10-23 23:21:00,37.0,13.0,30.44,SSE,157,8.0,16.0,36,0.00,,,0.00,,2013-10-24 06:21:00,